Details From GCLA - La Palma
To GCXO - Tenerife Norte - Los Rodeos
Flight Number -
Tags decoded
Created
Modified
Stats Distance 79 nm / 145 km
Max Altitude 0 ft / 0 m
Waypoints 3
Social Downloads 1
Likes 0
Share VATSIM

Download

Looking for another format? Having issues loading an existing format? Contact us
Advertisement - Login to hide

Notes

Requested: GCLA ARACO GCXO

Route

GCLA ARACO GCXO

ID Type Via Altitude Latitude Longitude Leg Dist Tot Dist Heading (true) Name
O GCLA APT - 0 ft / 0 m 28.62648˚ -17.75561˚ - 0 nm - La Palma
ARACO FIX - 0 ft / 0 m 28.43252˚ -17.45233˚ 19 nm 19 nm 126° / 126° -
O GCXO APT - 0 ft / 0 m 28.48266˚ -16.34154˚ 58 nm 78 nm 87° / 87° Tenerife Norte - Los Rodeos

Altitude Profile

Advertisement - Login to hide

GCLA

Details ICAO GCLA (SPC)
Name La Palma
Region Canary Islands
Timezone Atlantic/Canary (UTC+0.0)
Stats Elevation 107 ft / 33 m (AMSL)
Location 28.626480° -17.755613°
Runways 1
Magnetic Variation 5.509° W

METAR

GCLA 240730Z 33008KT 9999 BKN025 17/12 Q1026

Decode

TAF

TAF GCLA 240200Z 2403/2503 33007KT 9999 BKN030 TX21/2414Z TN17/2406Z

Decode

Departure Runways

ID Width Length Bearing (true) Bearing (mag) Surface Threshold Offset Overrun Length
01 148 ft / 45 m 7,240 ft / 2,207 m 359.02° 4.53° Asphalt 0 ft / 0 m 279 ft / 85 m
19 148 ft / 45 m 7,240 ft / 2,207 m 179.02° 184.53° Asphalt 0 ft / 0 m 236 ft / 72 m

GCXO

Details ICAO GCXO (TFN)
Name Tenerife Norte - Los Rodeos
Region Canary Islands
Timezone Atlantic/Canary (UTC+0.0)
Stats Elevation 2,076 ft / 633 m (AMSL)
Location 28.482656° -16.341541°
Runways 1
Magnetic Variation 4.990° W

METAR

GCXO 240730Z 14006KT 9999 FEW004 BKN006 12/11 Q1026 NOSIG

Decode

TAF

TAF AMD TAF AMD GCXO 240716Z 2407/2503 14008KT 9999 BKN010 TX16/2414Z TN10/2407Z TEMPO 2409/2421 SCT010 PROB30 TEMPO 2407/2408 3000 BCFG BKN004 TEMPO 2407/2419 SCT006

Decode

Destination Runways

ID Width Length Bearing (true) Bearing (mag) Surface Threshold Offset Overrun Length
12 148 ft / 45 m 11,165 ft / 3,403 m 110.67° 115.66° Asphalt 0 ft / 0 m 197 ft / 60 m
30 148 ft / 45 m 11,165 ft / 3,403 m 290.69° 295.68° Asphalt 0 ft / 0 m 197 ft / 60 m

Approach Navaids

Runway Type Ident Frequency Range Bearing (true) Bearing (mag) Slope Elevation
12 Localiser INOR 108.70 MHz 18 nm / 33 km 110.69° 115.68° - 3,356 ft / 1,023 m (AMSL)
12 Glidescope INOR 108.70 MHz 10 nm / 19 km 110.68° 115.67° 3.00° 2,070 ft / 631 m (AMSL)
12 DME INOR 108.70 MHz 18 nm / 33 km - - - 2,070 ft / 631 m (AMSL)
30 Localiser ITF 110.30 MHz 18 nm / 33 km 290.67° 295.66° - 2,025 ft / 617 m (AMSL)
30 Glidescope ITF 110.30 MHz 10 nm / 19 km 290.68° 295.67° 3.00° 2,025 ft / 617 m (AMSL)
30 DME ITF 110.30 MHz 18 nm / 33 km - - - 2,031 ft / 619 m (AMSL)

Popular Alternatives